Time;durP1;ratioP1;P1;durP2;ratioP2;P2;SDS_P1;SDS_P2;PMS_P1;PMS_P2;Temp;Humidity;BMP_temperature;BMP_pressure;BME280_temperature;BME280_humidity;BME280_pressure;Samples;Min_cycle;Max_cycle;Signal;HPM_P1;HPM_P2
2022/08/13 00:01:41;;;;;;;4.80;1.30;;;;;;;22.93;36.69;100925.91;5075092;28;20032;-49
2022/08/13 00:04:10;;;;;;;1.92;1.20;;;;;;;22.93;36.90;100930.56;5075529;28;20480;-47
2022/08/13 00:09:22;;;;;;;1.70;1.15;;;;;;;22.85;36.73;100923.69;5043626;28;20024;-50
2022/08/13 00:14:36;;;;;;;2.08;1.17;;;;;;;22.84;36.91;100930.25;5059905;28;20082;-48
2022/08/13 00:17:04;;;;;;;1.40;1.30;;;;;;;22.72;37.25;100918.69;5056999;28;20120;-44
2022/08/13 00:19:30;;;;;;;3.92;1.25;;;;;;;22.68;37.75;100920.28;5074530;28;20028;-48
2022/08/13 00:21:59;;;;;;;1.95;1.27;;;;;;;22.62;37.60;100930.38;5073692;28;20318;-46
2022/08/13 00:24:26;;;;;;;2.75;1.23;;;;;;;22.56;37.72;100925.94;5056927;28;20027;-45
2022/08/13 00:26:52;;;;;;;4.60;1.40;;;;;;;22.50;37.70;100930.56;5074586;28;20122;-45
2022/08/13 00:29:19;;;;;;;4.47;1.30;;;;;;;22.45;38.13;100919.56;5074867;28;20021;-47
2022/08/13 00:31:46;;;;;;;3.53;1.30;;;;;;;22.40;37.89;100923.09;5074517;28;20020;-45
2022/08/13 00:34:12;;;;;;;2.35;1.30;;;;;;;22.42;37.82;100918.19;5074670;28;20021;-50
2022/08/13 00:36:37;;;;;;;1.60;1.30;;;;;;;22.39;37.50;100915.16;5074268;28;20024;-46
2022/08/13 00:39:07;;;;;;;2.03;1.20;;;;;;;22.37;37.88;100918.13;5074485;28;20059;-50
2022/08/13 00:41:37;;;;;;;4.13;1.40;;;;;;;22.33;38.27;100910.72;5074289;28;20060;-46
2022/08/13 00:44:05;;;;;;;3.78;1.30;;;;;;;22.26;38.99;100921.06;5074608;28;20025;-46
2022/08/13 00:46:32;;;;;;;2.53;1.45;;;;;;;22.17;38.44;100909.72;5056503;28;20036;-48
2022/08/13 00:48:58;;;;;;;1.95;1.35;;;;;;;22.12;38.92;100912.41;5072848;28;20480;-46
2022/08/13 00:51:27;;;;;;;3.92;1.50;;;;;;;22.04;39.70;100913.72;5074215;28;20064;-50
2022/08/13 00:53:54;;;;;;;2.72;1.63;;;;;;;21.84;39.51;100900.66;5074271;28;20050;-48
2022/08/13 00:56:22;;;;;;;3.50;1.58;;;;;;;21.88;39.89;100906.44;5074821;28;20025;-48
2022/08/13 00:58:49;;;;;;;2.63;1.30;;;;;;;21.82;39.35;100906.41;5074453;28;20040;-49
2022/08/13 01:01:16;;;;;;;2.63;1.83;;;;;;;21.83;39.56;100908.03;5074360;28;20029;-46
2022/08/13 01:03:43;;;;;;;6.30;1.60;;;;;;;21.78;40.10;100901.72;5073753;28;20068;-49
2022/08/13 01:06:09;;;;;;;6.75;1.75;;;;;;;21.78;40.11;100909.91;5055875;28;20123;-48
2022/08/13 01:08:40;;;;;;;4.45;1.80;;;;;;;21.67;40.84;100905.41;5074168;28;20103;-51
2022/08/13 01:11:11;;;;;;;1.52;1.20;;;;;;;21.59;40.25;100893.03;5074156;28;20032;-46
2022/08/13 01:13:41;;;;;;;1.75;1.20;;;;;;;21.68;40.40;100904.34;5074237;28;20032;-46
2022/08/13 01:16:13;;;;;;;2.28;1.45;;;;;;;21.64;40.40;100896.66;5074389;28;20473;-47
2022/08/13 01:18:43;;;;;;;1.83;1.30;;;;;;;21.60;40.64;100894.66;5074636;28;20164;-48
2022/08/13 01:21:14;;;;;;;1.48;1.23;;;;;;;21.56;40.73;100897.13;5076649;28;20082;-47
2022/08/13 01:23:43;;;;;;;2.08;1.30;;;;;;;21.42;40.66;100873.97;5059377;28;20413;-47
2022/08/13 01:26:10;;;;;;;2.08;1.45;;;;;;;21.50;41.04;100891.84;5076974;28;20038;-46
2022/08/13 01:28:38;;;;;;;1.15;1.13;;;;;;;21.31;41.22;100885.88;5076065;28;20059;-47
2022/08/13 01:31:06;;;;;;;3.38;1.50;;;;;;;21.34;41.42;100888.06;5074830;28;20385;-46
2022/08/13 01:33:35;;;;;;;1.83;1.52;;;;;;;21.26;42.14;100883.88;5074932;28;20086;-47
2022/08/13 01:36:10;;;;;;;5.00;1.35;;;;;;;21.27;42.69;100882.81;5075900;28;20115;-47
2022/08/13 01:38:38;;;;;;;1.70;1.20;;;;;;;21.27;41.87;100882.81;5076902;28;20041;-47
2022/08/13 01:41:08;;;;;;;2.30;1.40;;;;;;;21.24;42.07;100875.13;5074329;28;20028;-47
2022/08/13 01:43:37;;;;;;;1.67;1.58;;;;;;;21.18;42.03;100876.97;5074537;28;20029;-46
2022/08/13 01:46:06;;;;;;;2.67;1.55;;;;;;;21.19;43.41;100877.78;5074060;28;20040;-47
2022/08/13 01:51:29;;;;;;;1.88;1.75;;;;;;;20.96;44.03;100887.06;5058462;28;20441;-46
2022/08/13 01:53:59;;;;;;;4.75;1.63;;;;;;;20.92;43.07;100877.72;5056596;28;20060;-46
2022/08/13 01:56:26;;;;;;;2.25;1.65;;;;;;;20.88;43.17;100885.59;5076027;28;20056;-47
2022/08/13 01:58:57;;;;;;;2.72;1.60;;;;;;;20.80;44.08;100880.53;5077614;28;20032;-46
2022/08/13 02:01:26;;;;;;;3.85;1.42;;;;;;;20.83;43.21;100880.03;5077978;28;20161;-46
2022/08/13 02:03:53;;;;;;;3.83;1.70;;;;;;;20.80;43.46;100881.38;5043184;28;20033;-46
2022/08/13 02:06:22;;;;;;;2.88;1.70;;;;;;;20.75;44.31;100875.03;5077810;28;20089;-47
2022/08/13 02:08:50;;;;;;;3.47;1.85;;;;;;;20.72;44.54;100887.25;5076760;28;20029;-46
2022/08/13 02:11:17;;;;;;;5.03;1.83;;;;;;;20.67;44.08;100888.03;5059228;28;20086;-46
2022/08/13 02:13:43;;;;;;;1.23;1.13;;;;;;;20.61;44.47;100885.47;5059326;28;20028;-46
2022/08/13 02:16:09;;;;;;;14.80;2.17;;;;;;;20.41;44.58;100856.78;5077413;28;20020;-47
2022/08/13 02:18:36;;;;;;;4.43;1.60;;;;;;;20.51;44.92;100872.47;5077069;28;20025;-47
2022/08/13 02:21:02;;;;;;;2.47;1.88;;;;;;;20.50;45.19;100889.91;5077731;28;20037;-49
2022/08/13 02:23:32;;;;;;;5.53;1.75;;;;;;;20.46;45.23;100877.84;5076237;28;20032;-46
2022/08/13 02:26:00;;;;;;;2.97;2.20;;;;;;;20.45;45.65;100884.38;5058980;28;20025;-46
2022/08/13 02:28:28;;;;;;;4.75;1.85;;;;;;;20.40;45.63;100882.41;5077722;28;20028;-45
2022/08/13 02:30:57;;;;;;;7.28;2.53;;;;;;;20.36;45.74;100874.97;5077162;28;20029;-46
2022/08/13 02:33:24;;;;;;;8.65;2.10;;;;;;;20.34;45.63;100871.63;5076069;28;20052;-46
2022/08/13 02:35:50;;;;;;;1.98;1.73;;;;;;;20.31;45.64;100879.25;5059020;28;20024;-46
2022/08/13 02:38:16;;;;;;;4.78;2.25;;;;;;;20.30;46.11;100868.59;5075688;28;20116;-47
2022/08/13 02:43:32;;;;;;;2.28;1.90;;;;;;;20.23;46.18;100878.84;5061728;28;20070;-48
2022/08/13 02:46:00;;;;;;;7.38;2.00;;;;;;;20.15;46.45;100882.81;5076295;28;20058;-46
2022/08/13 02:48:26;;;;;;;4.15;2.42;;;;;;;20.10;47.15;100877.28;5076691;28;20063;-50
2022/08/13 02:50:55;;;;;;;4.70;2.20;;;;;;;20.07;46.88;100883.22;5078964;28;20400;-47
2022/08/13 02:53:23;;;;;;;5.32;2.10;;;;;;;20.00;47.24;100882.53;5079892;28;20059;-50
2022/08/13 02:55:50;;;;;;;4.95;2.33;;;;;;;19.88;48.07;100880.72;5059340;28;20048;-52
2022/08/13 02:58:17;;;;;;;3.65;2.17;;;;;;;19.89;47.61;100898.72;5059053;28;20504;-47
2022/08/13 03:00:48;;;;;;;3.83;2.45;;;;;;;19.84;48.31;100892.38;5076717;28;20068;-50
2022/08/13 03:03:16;;;;;;;4.10;2.03;;;;;;;19.80;48.54;100891.19;5058652;28;20035;-48
2022/08/13 03:05:42;;;;;;;3.28;2.00;;;;;;;19.80;48.15;100883.84;5076326;28;20032;-49
2022/08/13 03:08:08;;;;;;;4.45;2.42;;;;;;;19.81;48.20;100887.41;5075772;28;20342;-48
2022/08/13 03:10:34;;;;;;;4.15;2.40;;;;;;;19.80;48.06;100886.56;5076142;28;20036;-47
2022/08/13 03:13:04;;;;;;;3.00;2.60;;;;;;;19.65;49.36;100883.50;5076382;28;20030;-46
2022/08/13 03:15:31;;;;;;;3.88;2.53;;;;;;;19.66;49.12;100883.28;5076220;28;20028;-48
2022/08/13 03:17:57;;;;;;;5.82;3.50;;;;;;;19.56;49.50;100874.06;5076276;28;20476;-46
2022/08/13 03:20:23;;;;;;;3.47;3.13;;;;;;;19.42;51.20;100882.53;5074516;28;20035;-51
2022/08/13 03:22:51;;;;;;;3.72;2.53;;;;;;;19.48;50.25;100881.59;5075233;28;20028;-46
2022/08/13 03:25:19;;;;;;;3.20;2.42;;;;;;;19.49;49.89;100880.50;5058304;28;20036;-50
2022/08/13 03:27:45;;;;;;;4.57;2.70;;;;;;;19.45;50.25;100878.53;5075666;28;20112;-47
2022/08/13 03:30:13;;;;;;;4.78;2.63;;;;;;;19.49;50.40;100879.69;5075914;28;20034;-47
2022/08/13 03:32:41;;;;;;;3.80;2.35;;;;;;;19.43;50.83;100878.75;5075895;28;20131;-46
2022/08/13 03:35:18;;;;;;;5.88;3.40;;;;;;;19.43;51.33;100886.13;5076139;28;20411;-47
2022/08/13 03:37:46;;;;;;;5.13;3.30;;;;;;;19.39;51.36;100874.88;5076019;28;20024;-48
2022/08/13 03:40:14;;;;;;;3.72;2.45;;;;;;;19.36;50.85;100874.53;5075740;28;20361;-48
2022/08/13 03:42:40;;;;;;;3.50;2.53;;;;;;;19.30;50.88;100874.41;5076002;28;20040;-46
2022/08/13 03:45:09;;;;;;;2.83;2.55;;;;;;;19.30;51.39;100879.88;5074649;28;20078;-47
2022/08/13 03:47:35;;;;;;;5.45;2.92;;;;;;;19.27;51.39;100869.44;5075122;28;20032;-47
2022/08/13 03:50:05;;;;;;;8.30;3.45;;;;;;;19.24;51.49;100877.25;5075549;28;20404;-46
2022/08/13 03:52:31;;;;;;;6.82;3.58;;;;;;;19.23;51.84;100878.34;5075776;28;20020;-46
2022/08/13 03:54:57;;;;;;;6.82;3.88;;;;;;;19.14;52.17;100876.00;5075118;28;20024;-45
2022/08/13 03:57:24;;;;;;;3.38;2.83;;;;;;;19.15;51.82;100883.09;5075641;28;20500;-47
2022/08/13 03:59:50;;;;;;;4.35;2.22;;;;;;;19.11;52.05;100886.53;5075679;28;20427;-46
2022/08/13 04:02:17;;;;;;;4.65;3.03;;;;;;;19.04;52.29;100873.06;5075467;28;20032;-48
2022/08/13 04:04:46;;;;;;;3.60;2.88;;;;;;;18.97;52.32;100872.38;5074285;28;20035;-48
2022/08/13 04:07:14;;;;;;;2.78;2.30;;;;;;;18.95;52.53;100869.06;5075174;28;20374;-48
2022/08/13 04:09:42;;;;;;;8.95;2.88;;;;;;;18.93;53.20;100879.38;5056963;28;20051;-49
2022/08/13 04:12:11;;;;;;;7.88;3.90;;;;;;;18.88;53.30;100879.25;5057505;28;20548;-50
2022/08/13 04:14:39;;;;;;;6.15;2.88;;;;;;;18.86;54.61;100875.94;5075042;28;20125;-46
2022/08/13 04:17:08;;;;;;;5.68;3.10;;;;;;;18.70;54.87;100874.72;5075358;28;20047;-47
2022/08/13 04:19:35;;;;;;;4.72;3.33;;;;;;;18.67;54.76;100873.31;5074408;28;20081;-49
2022/08/13 04:22:01;;;;;;;7.35;3.20;;;;;;;18.70;54.21;100869.28;5075294;28;20029;-47
2022/08/13 04:24:27;;;;;;;6.20;2.80;;;;;;;18.65;54.03;100859.13;5075255;28;20027;-47
2022/08/13 04:26:54;;;;;;;5.18;3.95;;;;;;;18.61;55.31;100863.41;5075001;28;20028;-46
2022/08/13 04:29:20;;;;;;;6.15;3.65;;;;;;;18.43;56.29;100863.50;5074720;28;20559;-47
2022/08/13 04:31:46;;;;;;;6.07;3.47;;;;;;;18.46;56.09;100865.75;5075148;28;20580;-47
2022/08/13 04:34:12;;;;;;;7.32;3.63;;;;;;;18.45;56.21;100872.25;5073043;28;20025;-47
2022/08/13 04:36:38;;;;;;;4.05;3.47;;;;;;;18.36;56.01;100861.72;5074772;28;20427;-48
2022/08/13 04:39:04;;;;;;;9.05;4.78;;;;;;;18.33;57.48;100847.75;5074629;28;20029;-47
2022/08/13 04:41:29;;;;;;;10.80;4.18;;;;;;;18.35;56.36;100849.19;5074485;28;20064;-48
2022/08/13 04:43:55;;;;;;;8.68;4.32;;;;;;;18.45;56.21;100867.66;5074959;28;20029;-47
2022/08/13 04:46:21;;;;;;;9.32;3.63;;;;;;;18.46;55.97;100863.88;5040275;28;20024;-48
2022/08/13 04:48:47;;;;;;;5.57;4.32;;;;;;;18.47;56.52;100865.50;5074793;28;20029;-48
2022/08/13 04:51:14;;;;;;;5.28;3.97;;;;;;;18.45;56.48;100872.25;5074264;28;20044;-47
2022/08/13 04:53:40;;;;;;;3.38;3.08;;;;;;;18.43;56.07;100860.78;5074179;28;20025;-48
2022/08/13 04:56:07;;;;;;;4.68;3.40;;;;;;;18.33;55.94;100856.78;5074363;28;20038;-48
2022/08/13 04:58:35;;;;;;;7.30;4.57;;;;;;;18.35;57.78;100875.56;5056461;28;20066;-47
2022/08/13 05:01:01;;;;;;;4.28;3.78;;;;;;;18.29;57.03;100854.75;5074085;28;20059;-47
2022/08/13 05:03:29;;;;;;;8.38;3.78;;;;;;;18.36;57.03;100869.88;5074629;28;20055;-47
2022/08/13 05:05:56;;;;;;;6.80;5.13;;;;;;;18.34;59.13;100869.28;5074200;28;20112;-48
2022/08/13 05:08:22;;;;;;;6.35;4.50;;;;;;;18.18;57.71;100848.22;5040010;28;20111;-46
2022/08/13 05:10:50;;;;;;;5.03;4.50;;;;;;;18.33;57.74;100866.78;5074420;28;20024;-46
2022/08/13 05:13:28;;;;;;;5.68;3.53;;;;;;;18.36;58.96;100871.78;5056191;28;20033;-46
2022/08/13 05:15:58;;;;;;;4.00;3.38;;;;;;;18.33;57.95;100862.22;5040176;28;20040;-46
2022/08/13 05:18:25;;;;;;;8.57;5.03;;;;;;;18.37;57.81;100865.28;5073045;28;20085;-47
2022/08/13 05:20:53;;;;;;;9.85;6.07;;;;;;;18.41;58.48;100876.53;5074282;28;20032;-46
2022/08/13 05:23:21;;;;;;;13.00;6.00;;;;;;;18.41;59.13;100871.09;5056383;28;20063;-48
2022/08/13 05:25:48;;;;;;;8.18;5.63;;;;;;;18.44;58.83;100879.56;5074166;28;20047;-46
2022/08/13 05:28:17;;;;;;;11.07;4.80;;;;;;;18.41;59.04;100871.09;5073141;28;20036;-46
2022/08/13 05:30:46;;;;;;;10.73;4.85;;;;;;;18.33;59.61;100853.19;5056237;28;20044;-47
2022/08/13 05:33:17;;;;;;;8.38;4.85;;;;;;;18.43;59.42;100866.22;5056401;28;20025;-49
2022/08/13 05:35:44;;;;;;;12.45;6.78;;;;;;;18.47;59.75;100870.13;5056632;28;20036;-48
2022/08/13 05:38:10;;;;;;;4.60;3.85;;;;;;;18.48;59.19;100869.06;5056354;28;20025;-48
2022/08/13 05:40:38;;;;;;;8.18;4.65;;;;;;;18.50;59.06;100877.81;5074064;28;20093;-48
2022/08/13 05:43:10;;;;;;;9.88;6.97;;;;;;;18.50;60.69;100883.28;5074147;28;20480;-46
2022/08/13 05:45:37;;;;;;;9.43;5.65;;;;;;;18.50;60.41;100869.66;5084051;28;20115;-45
2022/08/13 05:48:03;;;;;;;10.18;5.80;;;;;;;18.27;62.16;100871.28;5070290;28;20059;-48
2022/08/13 05:50:33;;;;;;;13.30;5.32;;;;;;;18.35;61.10;100867.41;5065008;28;20068;-46
2022/08/13 05:53:09;;;;;;;13.02;6.63;;;;;;;18.44;62.37;100874.13;5066367;28;20040;-50
2022/08/13 05:55:38;;;;;;;9.60;4.43;;;;;;;18.47;60.24;100879.09;5058198;28;20087;-46
2022/08/13 05:58:05;;;;;;;10.00;6.22;;;;;;;18.51;60.76;100871.31;5062229;28;20025;-48
2022/08/13 06:03:25;;;;;;;8.73;5.85;;;;;;;18.48;62.32;100872.63;5058085;28;20036;-48
2022/08/13 06:05:54;;;;;;;8.60;4.18;;;;;;;18.52;61.28;100875.69;5056304;28;20036;-48
2022/08/13 06:08:30;;;;;;;10.95;5.93;;;;;;;18.53;62.70;100866.44;5057511;28;20112;-48
2022/08/13 06:10:59;;;;;;;7.70;4.47;;;;;;;18.56;61.50;100866.00;5055519;28;20491;-47
2022/08/13 06:13:27;;;;;;;11.80;7.10;;;;;;;18.60;62.32;100863.63;5053810;28;20040;-47
2022/08/13 06:15:58;;;;;;;13.80;5.95;;;;;;;18.62;61.43;100859.59;5054057;28;20120;-47
2022/08/13 06:18:27;;;;;;;8.02;5.53;;;;;;;18.67;61.30;100861.63;5054288;28;20033;-48
2022/08/13 06:20:55;;;;;;;6.15;4.43;;;;;;;18.70;61.26;100861.13;5058778;28;20119;-46
2022/08/13 06:23:23;;;;;;;7.63;5.40;;;;;;;18.71;61.82;100860.06;5059765;28;20079;-46
2022/08/13 06:25:51;;;;;;;7.07;4.70;;;;;;;18.70;61.59;100844.78;5059514;28;20029;-48
2022/08/13 06:28:21;;;;;;;19.23;7.57;;;;;;;18.67;63.28;100854.28;5056858;28;20037;-46
2022/08/13 06:30:49;;;;;;;6.22;4.80;;;;;;;18.65;62.19;100840.09;5069593;28;20115;-46
2022/08/13 06:33:20;;;;;;;7.75;5.00;;;;;;;18.62;62.92;100837.00;5052801;28;20029;-47
2022/08/13 06:35:48;;;;;;;9.02;4.53;;;;;;;18.74;61.90;100844.09;5052754;28;20029;-46
2022/08/13 06:38:15;;;;;;;4.20;3.80;;;;;;;18.82;61.51;100855.72;5054225;28;20033;-47
2022/08/13 06:40:43;;;;;;;9.27;5.80;;;;;;;18.70;63.01;100842.06;5053432;28;20040;-47
2022/08/13 06:43:09;;;;;;;8.23;4.57;;;;;;;18.66;63.71;100849.06;5071507;28;20032;-46
2022/08/13 06:45:36;;;;;;;14.77;7.00;;;;;;;18.58;64.93;100831.22;5055486;28;20109;-46
2022/08/13 06:48:03;;;;;;;14.68;7.82;;;;;;;18.66;66.11;100838.19;5072249;28;20448;-47
2022/08/13 06:50:32;;;;;;;14.68;7.32;;;;;;;18.64;65.61;100838.41;5064906;28;20161;-47
2022/08/13 06:52:57;;;;;;;12.80;5.63;;;;;;;18.79;63.81;100845.28;5076885;28;20035;-46
2022/08/13 06:55:23;;;;;;;14.60;6.43;;;;;;;18.86;64.23;100844.09;5076427;28;20025;-51
2022/08/13 06:57:50;;;;;;;11.80;6.05;;;;;;;18.92;63.74;100842.31;5076781;28;20031;-47
2022/08/13 07:00:16;;;;;;;8.05;4.97;;;;;;;18.99;63.51;100837.56;5058606;28;20043;-46
2022/08/13 07:02:43;;;;;;;5.30;4.32;;;;;;;18.86;64.53;100835.13;5076895;28;20036;-46
2022/08/13 07:05:09;;;;;;;9.30;4.88;;;;;;;19.00;63.62;100830.22;5076443;28;20393;-48
2022/08/13 07:07:45;;;;;;;8.40;3.65;;;;;;;19.04;63.77;100836.88;5042186;28;20080;-46
2022/08/13 07:10:14;;;;;;;6.90;4.85;;;;;;;18.95;64.88;100830.97;5076430;28;20043;-47
2022/08/13 07:12:41;;;;;;;14.00;6.88;;;;;;;18.89;65.17;100815.59;5076369;28;20032;-46
2022/08/13 07:15:14;;;;;;;6.55;4.95;;;;;;;19.09;64.10;100832.34;5058254;28;20380;-47
2022/08/13 07:17:41;;;;;;;10.20;6.72;;;;;;;19.21;63.89;100837.75;5076740;28;20358;-46
2022/08/13 07:20:10;;;;;;;10.15;5.97;;;;;;;19.29;63.01;100840.06;5076520;28;20032;-46
2022/08/13 07:22:36;;;;;;;10.40;6.20;;;;;;;19.32;63.73;100834.16;5058253;28;20033;-50
2022/08/13 07:25:03;;;;;;;11.43;6.00;;;;;;;19.38;62.96;100828.81;5076469;28;20432;-51
2022/08/13 07:27:30;;;;;;;6.70;3.97;;;;;;;19.50;62.42;100843.19;5076261;28;20039;-50
2022/08/13 07:29:57;;;;;;;9.32;5.35;;;;;;;19.53;62.43;100834.53;5076200;28;20060;-46
2022/08/13 07:32:27;;;;;;;9.30;4.63;;;;;;;19.64;62.20;100846.44;5058734;28;20060;-46
2022/08/13 07:34:58;;;;;;;11.45;6.15;;;;;;;19.71;62.05;100844.41;5058171;28;20020;-47
2022/08/13 07:37:24;;;;;;;8.40;5.45;;;;;;;19.75;62.24;100844.78;5058012;28;20119;-50
2022/08/13 07:39:50;;;;;;;7.45;6.15;;;;;;;19.85;62.18;100848.47;5075544;28;20115;-50
2022/08/13 07:42:19;;;;;;;10.25;6.50;;;;;;;19.89;62.58;100841.50;5075708;28;20036;-53
2022/08/13 07:44:50;;;;;;;7.03;4.55;;;;;;;19.89;62.65;100833.31;5058582;28;20025;-47
2022/08/13 07:47:17;;;;;;;13.68;5.80;;;;;;;19.92;63.68;100830.06;5076022;28;20064;-48
2022/08/13 07:49:45;;;;;;;10.02;5.38;;;;;;;20.09;62.81;100840.16;5075915;28;20028;-47
2022/08/13 07:52:11;;;;;;;16.02;6.20;;;;;;;20.09;62.13;100832.78;5057428;28;20037;-47
2022/08/13 07:54:37;;;;;;;8.73;6.10;;;;;;;20.21;63.94;100840.09;5056458;28;20078;-48
2022/08/13 07:57:04;;;;;;;9.20;5.47;;;;;;;20.28;62.68;100848.91;5074958;28;20020;-47
2022/08/13 07:59:31;;;;;;;10.32;5.93;;;;;;;20.37;62.20;100841.16;5057955;28;20056;-47
2022/08/13 08:01:56;;;;;;;11.63;5.78;;;;;;;20.30;61.67;100822.25;5075404;28;20093;-49
2022/08/13 08:04:25;;;;;;;11.00;6.65;;;;;;;20.53;61.53;100851.22;5075374;28;20033;-47
2022/08/13 08:06:51;;;;;;;9.95;5.75;;;;;;;20.57;61.42;100837.91;5075300;28;20468;-47
2022/08/13 08:09:19;;;;;;;7.28;5.32;;;;;;;20.65;61.99;100841.06;5075242;28;20037;-47
2022/08/13 08:14:32;;;;;;;12.70;5.90;;;;;;;20.83;60.96;100833.63;5060618;28;20056;-49
2022/08/13 08:16:59;;;;;;;9.38;5.93;;;;;;;20.94;60.84;100835.41;5075085;28;20494;-49
2022/08/13 08:19:27;;;;;;;12.68;5.90;;;;;;;20.87;60.41;100807.47;5075777;28;20025;-50
2022/08/13 08:21:56;;;;;;;10.82;4.82;;;;;;;21.02;59.88;100815.88;5074980;28;20029;-47
2022/08/13 08:24:23;;;;;;;10.60;5.43;;;;;;;21.20;60.82;100835.75;5075146;28;20016;-49
2022/08/13 08:26:49;;;;;;;8.85;6.07;;;;;;;21.28;59.72;100832.53;5056866;28;20032;-48
2022/08/13 08:29:16;;;;;;;10.15;4.40;;;;;;;21.37;59.79;100833.72;5056498;28;20051;-49
2022/08/13 08:31:44;;;;;;;5.32;4.15;;;;;;;21.47;59.64;100830.34;5074272;28;20028;-50
2022/08/13 08:34:11;;;;;;;10.85;4.68;;;;;;;21.58;58.94;100833.97;5074902;28;20033;-52
2022/08/13 08:36:41;;;;;;;7.15;4.43;;;;;;;21.59;58.58;100813.78;5075100;28;20039;-48
2022/08/13 08:44:43;;;;;;;11.02;4.55;;;;;;;22.12;57.63;100825.72;5061088;28;20107;-48
2022/08/13 08:47:10;;;;;;;8.25;4.70;;;;;;;22.22;57.42;100822.22;5074374;28;20082;-48
2022/08/13 08:49:39;;;;;;;6.63;4.25;;;;;;;22.46;57.68;100822.69;5075226;28;20119;-47
2022/08/13 08:52:05;;;;;;;6.93;3.42;;;;;;;22.66;56.15;100824.72;5074275;28;20473;-47
2022/08/13 08:54:32;;;;;;;6.47;3.63;;;;;;;22.76;55.86;100815.75;5074547;28;20036;-48
2022/08/13 08:56:58;;;;;;;5.28;3.28;;;;;;;22.99;55.26;100817.19;5074301;28;20028;-49
2022/08/13 08:59:27;;;;;;;9.98;3.45;;;;;;;23.29;54.40;100818.41;5074378;28;20039;-48
2022/08/13 09:01:55;;;;;;;6.13;3.70;;;;;;;24.44;51.59;100828.09;5056473;28;20101;-48
2022/08/13 09:04:25;;;;;;;5.80;2.80;;;;;;;25.85;48.85;100817.84;5055922;28;20020;-48
2022/08/13 09:06:53;;;;;;;6.95;3.15;;;;;;;26.99;46.78;100815.59;5056915;28;20020;-48
2022/08/13 09:09:20;;;;;;;5.95;2.58;;;;;;;27.88;45.02;100808.50;5074512;28;20025;-50
2022/08/13 09:11:49;;;;;;;4.45;2.35;;;;;;;28.61;43.64;100810.84;5075013;28;20066;-50
2022/08/13 09:14:15;;;;;;;10.70;3.38;;;;;;;29.33;41.46;100805.44;5056990;28;20032;-48
2022/08/13 09:16:42;;;;;;;9.50;3.28;;;;;;;30.01;39.96;100805.47;5074855;28;20111;-48
2022/08/13 09:19:09;;;;;;;3.92;2.10;;;;;;;30.60;40.23;100802.50;5055969;28;20094;-48
2022/08/13 09:21:45;;;;;;;6.22;3.67;;;;;;;31.20;37.39;100791.88;5056166;28;20032;-47
2022/08/13 09:24:15;;;;;;;8.18;3.35;;;;;;;31.37;36.43;100796.63;5073453;28;20104;-48
2022/08/13 09:26:48;;;;;;;6.72;2.63;;;;;;;32.13;35.43;100787.78;5074201;28;20413;-48
2022/08/13 09:29:15;;;;;;;;;;;;;;;32.79;32.79;100790.09;5056582;28;20465;-49
2022/08/13 09:31:47;;;;;;;2.97;1.90;;;;;;;33.32;33.33;100775.81;5073850;28;19909;-47
2022/08/13 09:34:14;;;;;;;6.00;3.30;;;;;;;33.84;33.48;100777.31;5074371;28;20061;-49
2022/08/13 09:36:41;;;;;;;2.33;2.00;;;;;;;34.21;32.27;100772.66;5073808;28;20037;-48
2022/08/13 09:39:08;;;;;;;6.25;2.97;;;;;;;34.03;32.38;100783.19;5073979;28;20029;-51
2022/08/13 09:41:41;;;;;;;4.78;2.45;;;;;;;34.41;29.82;100773.72;5073894;28;20031;-49
2022/08/13 09:44:07;;;;;;;4.68;2.13;;;;;;;35.06;31.67;100771.00;5074109;28;20036;-51
2022/08/13 09:46:35;;;;;;;6.72;1.95;;;;;;;35.73;30.33;100775.34;5074367;28;20024;-48
2022/08/13 09:49:03;;;;;;;4.45;2.10;;;;;;;35.85;28.70;100775.28;5056355;28;20354;-48
2022/08/13 09:51:33;;;;;;;2.55;1.60;;;;;;;36.38;29.69;100772.25;5055235;28;20503;-49
2022/08/13 09:53:59;;;;;;;8.73;2.47;;;;;;;36.68;28.87;100768.97;5073539;28;20032;-45
2022/08/13 09:56:24;;;;;;;3.80;2.05;;;;;;;37.06;27.63;100768.22;5073799;28;20031;-47
2022/08/13 09:58:50;;;;;;;2.13;1.70;;;;;;;37.45;27.10;100765.47;5073487;28;20032;-49
2022/08/13 10:01:18;;;;;;;6.80;2.35;;;;;;;37.90;24.98;100760.31;5072629;28;20032;-46
2022/08/13 10:03:45;;;;;;;8.73;2.17;;;;;;;37.96;26.00;100751.22;5073489;28;20064;-46
2022/08/13 10:06:11;;;;;;;6.25;1.85;;;;;;;38.34;25.29;100738.25;5073724;28;20516;-49
2022/08/13 10:08:37;;;;;;;3.33;1.90;;;;;;;38.38;26.11;100755.13;5055459;28;20116;-46
2022/08/13 10:11:04;;;;;;;2.08;1.33;;;;;;;38.94;25.08;100749.94;5073543;28;20033;-47
2022/08/13 10:13:30;;;;;;;7.60;1.95;;;;;;;39.29;24.94;100741.97;5073374;28;20541;-46
2022/08/13 10:15:55;;;;;;;4.85;2.20;;;;;;;39.63;24.31;100747.59;5073384;28;20037;-47
2022/08/13 10:18:25;;;;;;;4.22;1.58;;;;;;;40.03;23.97;100737.53;5076683;28;20035;-46
2022/08/13 10:20:53;;;;;;;3.33;2.03;;;;;;;40.33;22.13;100732.94;5059166;28;20036;-48
2022/08/13 10:23:18;;;;;;;4.13;1.70;;;;;;;40.46;22.47;100739.09;5077124;28;20020;-52
2022/08/13 10:25:46;;;;;;;2.72;1.85;;;;;;;40.39;21.73;100729.38;5076896;28;20077;-48
2022/08/13 10:28:24;;;;;;;4.65;2.22;;;;;;;39.34;20.82;100735.22;5076685;28;20103;-50
2022/08/13 10:30:50;;;;;;;4.30;1.50;;;;;;;40.33;21.84;100730.94;5076932;28;20488;-52
2022/08/13 10:33:17;;;;;;;2.83;1.58;;;;;;;40.57;21.00;100720.25;5077323;28;20032;-51
2022/08/13 10:35:51;;;;;;;6.00;1.65;;;;;;;40.51;20.30;100725.47;5076336;28;20043;-52
2022/08/13 10:38:20;;;;;;;2.22;1.45;;;;;;;41.16;19.85;100726.59;5076805;28;20070;-51
2022/08/13 10:40:47;;;;;;;2.35;1.80;;;;;;;41.07;19.16;100699.97;5058445;28;20028;-50
2022/08/13 10:43:14;;;;;;;5.45;1.60;;;;;;;41.51;20.19;100704.53;5076769;28;20359;-51
2022/08/13 10:45:42;;;;;;;6.18;1.70;;;;;;;41.98;19.55;100711.06;5076654;28;20032;-52
2022/08/13 10:48:11;;;;;;;7.00;2.30;;;;;;;42.27;16.02;100700.53;5076363;28;20111;-50
2022/08/13 10:50:37;;;;;;;4.80;2.00;;;;;;;41.35;17.08;100704.94;5076188;28;20113;-50
2022/08/13 10:53:03;;;;;;;9.35;2.00;;;;;;;40.99;17.95;100711.25;5058512;28;20480;-54
2022/08/13 10:55:29;;;;;;;5.43;1.80;;;;;;;41.38;18.87;100707.75;5076252;28;20119;-52
2022/08/13 10:57:55;;;;;;;2.13;1.80;;;;;;;42.13;17.35;100697.78;5076133;28;20044;-52
2022/08/13 11:00:21;;;;;;;3.35;2.20;;;;;;;41.57;16.68;100700.94;5076467;28;20044;-51
2022/08/13 11:02:49;;;;;;;4.25;1.67;;;;;;;41.55;18.03;100694.06;5076489;28;20037;-52
2022/08/13 11:05:16;;;;;;;1.67;1.58;;;;;;;42.60;17.96;100680.75;5076765;28;20047;-53
2022/08/13 11:07:45;;;;;;;16.00;2.17;;;;;;;42.54;15.14;100683.97;5080247;28;20039;-48
2022/08/13 11:10:12;;;;;;;5.47;1.95;;;;;;;42.50;15.05;100691.66;5058467;28;20028;-54
2022/08/13 11:12:42;;;;;;;11.38;2.20;;;;;;;42.25;15.83;100683.22;5077023;28;20372;-49
2022/08/13 11:15:08;;;;;;;2.92;2.15;;;;;;;42.84;15.64;100679.03;5077636;28;20040;-53
2022/08/13 11:17:35;;;;;;;4.85;2.10;;;;;;;42.27;16.73;100674.34;5076490;28;20038;-53
2022/08/13 11:20:06;;;;;;;11.75;1.90;;;;;;;42.58;15.83;100672.66;5076685;28;20071;-51
2022/08/13 11:22:32;;;;;;;5.93;2.20;;;;;;;42.80;16.34;100661.28;5075872;28;20544;-48
2022/08/13 11:25:00;;;;;;;2.78;1.67;;;;;;;43.81;15.64;100653.00;5075907;28;20024;-52
2022/08/13 11:27:26;;;;;;;4.85;2.10;;;;;;;44.36;15.11;100649.22;5075984;28;20036;-49
2022/08/13 11:29:53;;;;;;;6.50;1.80;;;;;;;43.83;14.04;100653.38;5076733;28;20036;-48
2022/08/13 11:32:20;;;;;;;3.35;1.88;;;;;;;43.85;14.75;100640.44;5075734;28;20479;-52
2022/08/13 11:34:48;;;;;;;4.32;2.60;;;;;;;43.63;15.59;100653.09;5074740;28;20127;-51
2022/08/13 11:37:13;;;;;;;5.95;2.30;;;;;;;43.98;14.37;100637.84;5075716;28;20425;-50
2022/08/13 11:39:39;;;;;;;10.43;2.63;;;;;;;43.69;14.65;100635.28;5075977;28;20046;-47
2022/08/13 11:42:05;;;;;;;3.97;2.22;;;;;;;43.95;15.11;100640.72;5075872;28;20067;-48
2022/08/13 11:44:31;;;;;;;5.80;1.90;;;;;;;44.19;13.48;100628.38;5075699;28;20028;-52
2022/08/13 11:46:57;;;;;;;4.32;2.20;;;;;;;45.00;14.08;100635.47;5076459;28;20537;-52
2022/08/13 11:49:23;;;;;;;4.53;2.53;;;;;;;44.73;14.26;100632.56;5076664;28;20036;-49